sensor_id;sensor_type;location;lat;lon;timestamp;temperature;humidity
49465;DHT22;35358;49.342;8.802;2023-04-09T00:00:25;8.50;99.90
49465;DHT22;35358;49.342;8.802;2023-04-09T00:02:53;8.50;99.90
49465;DHT22;35358;49.342;8.802;2023-04-09T00:05:21;8.50;99.90
49465;DHT22;35358;49.342;8.802;2023-04-09T00:07:47;8.50;99.90
49465;DHT22;35358;49.342;8.802;2023-04-09T00:10:15;8.50;99.90
49465;DHT22;35358;49.342;8.802;2023-04-09T00:12:41;8.50;99.90
49465;DHT22;35358;49.342;8.802;2023-04-09T00:15:07;8.50;99.90
49465;DHT22;35358;49.342;8.802;2023-04-09T00:17:35;8.50;99.90
49465;DHT22;35358;49.342;8.802;2023-04-09T00:20:03;8.40;99.90
49465;DHT22;35358;49.342;8.802;2023-04-09T00:22:29;8.40;99.90
49465;DHT22;35358;49.342;8.802;2023-04-09T00:24:57;8.40;99.90
49465;DHT22;35358;49.342;8.802;2023-04-09T00:27:25;8.40;99.90
49465;DHT22;35358;49.342;8.802;2023-04-09T00:29:53;8.30;99.90
49465;DHT22;35358;49.342;8.802;2023-04-09T00:32:21;8.30;99.90
49465;DHT22;35358;49.342;8.802;2023-04-09T00:34:49;8.20;99.90
49465;DHT22;35358;49.342;8.802;2023-04-09T00:37:15;8.20;99.90
49465;DHT22;35358;49.342;8.802;2023-04-09T00:39:41;8.20;99.90
49465;DHT22;35358;49.342;8.802;2023-04-09T00:42:06;8.20;99.90
49465;DHT22;35358;49.342;8.802;2023-04-09T00:44:36;8.30;99.90
49465;DHT22;35358;49.342;8.802;2023-04-09T00:47:04;8.30;99.90
49465;DHT22;35358;49.342;8.802;2023-04-09T00:49:33;8.30;99.90
49465;DHT22;35358;49.342;8.802;2023-04-09T00:51:59;8.20;99.90
49465;DHT22;35358;49.342;8.802;2023-04-09T00:54:25;8.10;99.90
49465;DHT22;35358;49.342;8.802;2023-04-09T00:56:51;8.00;99.90
49465;DHT22;35358;49.342;8.802;2023-04-09T00:59:17;7.90;99.90
49465;DHT22;35358;49.342;8.802;2023-04-09T01:01:45;7.90;99.90
49465;DHT22;35358;49.342;8.802;2023-04-09T01:04:14;7.90;99.90
49465;DHT22;35358;49.342;8.802;2023-04-09T01:06:46;7.90;99.90
49465;DHT22;35358;49.342;8.802;2023-04-09T01:09:23;7.90;99.90
49465;DHT22;35358;49.342;8.802;2023-04-09T01:14:28;7.90;99.90
49465;DHT22;35358;49.342;8.802;2023-04-09T01:17:03;7.90;99.90
49465;DHT22;35358;49.342;8.802;2023-04-09T01:19:53;7.90;99.90
49465;DHT22;35358;49.342;8.802;2023-04-09T01:22:56;7.90;99.90
49465;DHT22;35358;49.342;8.802;2023-04-09T01:25:42;7.90;99.90
49465;DHT22;35358;49.342;8.802;2023-04-09T01:28:34;7.90;99.90
49465;DHT22;35358;49.342;8.802;2023-04-09T01:31:06;7.90;99.90
49465;DHT22;35358;49.342;8.802;2023-04-09T01:33:32;7.90;99.90
49465;DHT22;35358;49.342;8.802;2023-04-09T01:36:01;8.00;99.90
49465;DHT22;35358;49.342;8.802;2023-04-09T01:38:28;7.90;99.90
49465;DHT22;35358;49.342;8.802;2023-04-09T01:40:56;7.90;99.90
49465;DHT22;35358;49.342;8.802;2023-04-09T01:43:26;8.00;99.90
49465;DHT22;35358;49.342;8.802;2023-04-09T01:45:53;8.00;99.90
49465;DHT22;35358;49.342;8.802;2023-04-09T01:48:19;7.90;99.90
49465;DHT22;35358;49.342;8.802;2023-04-09T01:50:45;7.90;99.90
49465;DHT22;35358;49.342;8.802;2023-04-09T01:53:12;7.90;99.90
49465;DHT22;35358;49.342;8.802;2023-04-09T01:55:42;7.90;99.90
49465;DHT22;35358;49.342;8.802;2023-04-09T01:58:07;7.90;99.90
49465;DHT22;35358;49.342;8.802;2023-04-09T02:00:46;7.90;99.90
49465;DHT22;35358;49.342;8.802;2023-04-09T02:03:22;7.80;99.90
49465;DHT22;35358;49.342;8.802;2023-04-09T02:08:43;7.80;99.90
49465;DHT22;35358;49.342;8.802;2023-04-09T02:11:10;7.90;99.90
49465;DHT22;35358;49.342;8.802;2023-04-09T02:13:37;7.90;99.90
49465;DHT22;35358;49.342;8.802;2023-04-09T02:16:05;7.90;99.90
49465;DHT22;35358;49.342;8.802;2023-04-09T02:18:33;7.80;99.90
49465;DHT22;35358;49.342;8.802;2023-04-09T02:21:02;7.80;99.90
49465;DHT22;35358;49.342;8.802;2023-04-09T02:23:28;7.80;99.90
49465;DHT22;35358;49.342;8.802;2023-04-09T02:25:56;7.70;99.90
49465;DHT22;35358;49.342;8.802;2023-04-09T02:28:22;7.70;99.90
49465;DHT22;35358;49.342;8.802;2023-04-09T02:30:47;7.70;99.90
49465;DHT22;35358;49.342;8.802;2023-04-09T02:33:13;7.70;99.90
49465;DHT22;35358;49.342;8.802;2023-04-09T02:35:38;7.70;99.90
49465;DHT22;35358;49.342;8.802;2023-04-09T02:38:04;7.60;99.90
49465;DHT22;35358;49.342;8.802;2023-04-09T02:40:30;7.70;99.90
49465;DHT22;35358;49.342;8.802;2023-04-09T02:42:56;7.70;99.90
49465;DHT22;35358;49.342;8.802;2023-04-09T02:45:24;7.70;99.90
49465;DHT22;35358;49.342;8.802;2023-04-09T02:47:50;7.70;99.90
49465;DHT22;35358;49.342;8.802;2023-04-09T02:50:20;7.60;99.90
49465;DHT22;35358;49.342;8.802;2023-04-09T02:52:48;7.60;99.90
49465;DHT22;35358;49.342;8.802;2023-04-09T02:55:14;7.60;99.90
49465;DHT22;35358;49.342;8.802;2023-04-09T02:57:40;7.60;99.90
49465;DHT22;35358;49.342;8.802;2023-04-09T03:00:06;7.70;99.90
49465;DHT22;35358;49.342;8.802;2023-04-09T03:02:34;7.60;99.90
49465;DHT22;35358;49.342;8.802;2023-04-09T03:05:00;7.50;99.90
49465;DHT22;35358;49.342;8.802;2023-04-09T03:07:25;7.60;99.90
49465;DHT22;35358;49.342;8.802;2023-04-09T03:09:51;7.50;99.90
49465;DHT22;35358;49.342;8.802;2023-04-09T03:12:16;7.50;99.90
49465;DHT22;35358;49.342;8.802;2023-04-09T03:14:42;7.60;99.90
49465;DHT22;35358;49.342;8.802;2023-04-09T03:17:08;7.60;99.90
49465;DHT22;35358;49.342;8.802;2023-04-09T03:19:36;7.50;99.90
49465;DHT22;35358;49.342;8.802;2023-04-09T03:22:01;7.60;99.90
49465;DHT22;35358;49.342;8.802;2023-04-09T03:24:31;7.50;99.90
49465;DHT22;35358;49.342;8.802;2023-04-09T03:26:57;7.50;99.90
49465;DHT22;35358;49.342;8.802;2023-04-09T03:29:25;7.50;99.90
49465;DHT22;35358;49.342;8.802;2023-04-09T03:31:51;7.50;99.90
49465;DHT22;35358;49.342;8.802;2023-04-09T03:34:16;7.50;99.90
49465;DHT22;35358;49.342;8.802;2023-04-09T03:36:46;7.40;99.90
49465;DHT22;35358;49.342;8.802;2023-04-09T03:39:12;7.40;99.90
49465;DHT22;35358;49.342;8.802;2023-04-09T03:41:40;7.30;99.90
49465;DHT22;35358;49.342;8.802;2023-04-09T03:44:05;7.40;99.90
49465;DHT22;35358;49.342;8.802;2023-04-09T03:46:33;7.40;99.90
49465;DHT22;35358;49.342;8.802;2023-04-09T03:48:59;7.30;99.90
49465;DHT22;35358;49.342;8.802;2023-04-09T03:51:24;7.30;99.90
49465;DHT22;35358;49.342;8.802;2023-04-09T03:53:51;7.20;99.90
49465;DHT22;35358;49.342;8.802;2023-04-09T03:56:19;7.20;99.90
49465;DHT22;35358;49.342;8.802;2023-04-09T03:58:44;7.20;99.90
49465;DHT22;35358;49.342;8.802;2023-04-09T04:01:12;7.20;99.90
49465;DHT22;35358;49.342;8.802;2023-04-09T04:03:38;7.00;99.90
49465;DHT22;35358;49.342;8.802;2023-04-09T04:06:06;6.90;99.90
49465;DHT22;35358;49.342;8.802;2023-04-09T04:08:31;6.90;99.90
49465;DHT22;35358;49.342;8.802;2023-04-09T04:11:02;6.90;99.90
49465;DHT22;35358;49.342;8.802;2023-04-09T04:13:29;6.80;99.90
49465;DHT22;35358;49.342;8.802;2023-04-09T04:15:56;6.70;99.90
49465;DHT22;35358;49.342;8.802;2023-04-09T04:18:24;6.60;99.90
49465;DHT22;35358;49.342;8.802;2023-04-09T04:20:50;6.60;99.90
49465;DHT22;35358;49.342;8.802;2023-04-09T04:23:15;6.60;99.90
49465;DHT22;35358;49.342;8.802;2023-04-09T04:25:46;6.60;99.90
49465;DHT22;35358;49.342;8.802;2023-04-09T04:28:13;6.50;99.90
49465;DHT22;35358;49.342;8.802;2023-04-09T04:30:41;6.50;99.90
49465;DHT22;35358;49.342;8.802;2023-04-09T04:33:07;6.50;99.90
49465;DHT22;35358;49.342;8.802;2023-04-09T04:35:35;6.50;99.90
49465;DHT22;35358;49.342;8.802;2023-04-09T04:38:05;6.40;99.90
49465;DHT22;35358;49.342;8.802;2023-04-09T04:40:33;6.40;99.90
49465;DHT22;35358;49.342;8.802;2023-04-09T04:42:59;6.30;99.90
49465;DHT22;35358;49.342;8.802;2023-04-09T04:45:27;6.20;99.90
49465;DHT22;35358;49.342;8.802;2023-04-09T04:47:52;6.20;99.90
49465;DHT22;35358;49.342;8.802;2023-04-09T04:50:18;6.10;99.90
49465;DHT22;35358;49.342;8.802;2023-04-09T04:52:43;6.10;99.90
49465;DHT22;35358;49.342;8.802;2023-04-09T04:55:11;6.00;99.90
49465;DHT22;35358;49.342;8.802;2023-04-09T04:57:37;6.10;99.90
49465;DHT22;35358;49.342;8.802;2023-04-09T05:00:03;6.10;99.90
49465;DHT22;35358;49.342;8.802;2023-04-09T05:02:28;6.10;99.90
49465;DHT22;35358;49.342;8.802;2023-04-09T05:04:56;6.10;99.90
49465;DHT22;35358;49.342;8.802;2023-04-09T05:07:21;6.00;99.90
49465;DHT22;35358;49.342;8.802;2023-04-09T05:09:47;6.10;99.90
49465;DHT22;35358;49.342;8.802;2023-04-09T05:12:13;6.20;99.90
49465;DHT22;35358;49.342;8.802;2023-04-09T05:14:39;6.10;99.90
49465;DHT22;35358;49.342;8.802;2023-04-09T05:17:05;6.20;99.90
49465;DHT22;35358;49.342;8.802;2023-04-09T05:19:30;6.30;99.90
49465;DHT22;35358;49.342;8.802;2023-04-09T05:21:58;6.30;99.90
49465;DHT22;35358;49.342;8.802;2023-04-09T05:24:24;6.20;99.90
49465;DHT22;35358;49.342;8.802;2023-04-09T05:26:52;6.30;99.90
49465;DHT22;35358;49.342;8.802;2023-04-09T05:29:18;6.30;99.90
49465;DHT22;35358;49.342;8.802;2023-04-09T05:31:44;6.30;99.90
49465;DHT22;35358;49.342;8.802;2023-04-09T05:34:09;6.20;99.90
49465;DHT22;35358;49.342;8.802;2023-04-09T05:36:42;6.20;99.90
49465;DHT22;35358;49.342;8.802;2023-04-09T05:39:07;6.20;99.90
49465;DHT22;35358;49.342;8.802;2023-04-09T05:41:36;6.20;99.90
49465;DHT22;35358;49.342;8.802;2023-04-09T05:44:02;6.20;99.90
49465;DHT22;35358;49.342;8.802;2023-04-09T05:46:28;6.20;99.90
49465;DHT22;35358;49.342;8.802;2023-04-09T05:48:54;6.30;99.90
49465;DHT22;35358;49.342;8.802;2023-04-09T05:51:24;6.30;99.90
49465;DHT22;35358;49.342;8.802;2023-04-09T05:53:50;6.30;99.90
49465;DHT22;35358;49.342;8.802;2023-04-09T05:56:18;6.40;99.90
49465;DHT22;35358;49.342;8.802;2023-04-09T05:58:43;6.40;99.90
49465;DHT22;35358;49.342;8.802;2023-04-09T06:01:11;6.50;99.90
49465;DHT22;35358;49.342;8.802;2023-04-09T06:03:37;6.50;99.90
49465;DHT22;35358;49.342;8.802;2023-04-09T06:06:03;6.60;99.90
49465;DHT22;35358;49.342;8.802;2023-04-09T06:08:28;6.70;99.90
49465;DHT22;35358;49.342;8.802;2023-04-09T06:10:54;6.70;99.90
49465;DHT22;35358;49.342;8.802;2023-04-09T06:13:19;6.70;99.90
49465;DHT22;35358;49.342;8.802;2023-04-09T06:15:47;6.80;99.90
49465;DHT22;35358;49.342;8.802;2023-04-09T06:18:15;6.80;99.90
49465;DHT22;35358;49.342;8.802;2023-04-09T06:20:41;6.80;99.90
49465;DHT22;35358;49.342;8.802;2023-04-09T06:23:09;6.80;99.90
49465;DHT22;35358;49.342;8.802;2023-04-09T06:25:35;6.90;99.90
49465;DHT22;35358;49.342;8.802;2023-04-09T06:28:03;7.00;99.90
49465;DHT22;35358;49.342;8.802;2023-04-09T06:30:29;7.10;99.90
49465;DHT22;35358;49.342;8.802;2023-04-09T06:32:59;7.10;99.90
49465;DHT22;35358;49.342;8.802;2023-04-09T06:35:24;7.10;99.90
49465;DHT22;35358;49.342;8.802;2023-04-09T06:37:54;7.20;99.90
49465;DHT22;35358;49.342;8.802;2023-04-09T06:40:23;7.20;99.90
49465;DHT22;35358;49.342;8.802;2023-04-09T06:42:51;7.40;99.90
49465;DHT22;35358;49.342;8.802;2023-04-09T06:45:16;7.50;99.90
49465;DHT22;35358;49.342;8.802;2023-04-09T06:47:44;7.50;99.90
49465;DHT22;35358;49.342;8.802;2023-04-09T06:50:10;7.50;99.90
49465;DHT22;35358;49.342;8.802;2023-04-09T06:52:35;7.60;99.90
49465;DHT22;35358;49.342;8.802;2023-04-09T06:55:03;7.70;99.90
49465;DHT22;35358;49.342;8.802;2023-04-09T06:57:29;7.80;99.90
49465;DHT22;35358;49.342;8.802;2023-04-09T06:59:57;7.80;99.90
49465;DHT22;35358;49.342;8.802;2023-04-09T07:02:22;7.90;99.90
49465;DHT22;35358;49.342;8.802;2023-04-09T07:04:48;8.00;99.90
49465;DHT22;35358;49.342;8.802;2023-04-09T07:07:13;8.10;99.90
49465;DHT22;35358;49.342;8.802;2023-04-09T07:09:42;8.10;99.90
49465;DHT22;35358;49.342;8.802;2023-04-09T07:12:07;8.10;99.90
49465;DHT22;35358;49.342;8.802;2023-04-09T07:14:33;8.20;99.90
49465;DHT22;35358;49.342;8.802;2023-04-09T07:17:00;8.70;99.90
49465;DHT22;35358;49.342;8.802;2023-04-09T07:19:28;8.60;99.90
49465;DHT22;35358;49.342;8.802;2023-04-09T07:21:55;8.40;99.90
49465;DHT22;35358;49.342;8.802;2023-04-09T07:24:23;8.40;99.90
49465;DHT22;35358;49.342;8.802;2023-04-09T07:26:48;8.40;99.90
49465;DHT22;35358;49.342;8.802;2023-04-09T07:29:17;8.50;99.90
49465;DHT22;35358;49.342;8.802;2023-04-09T07:31:44;8.60;99.90
49465;DHT22;35358;49.342;8.802;2023-04-09T07:34:10;8.70;99.90
49465;DHT22;35358;49.342;8.802;2023-04-09T07:36:36;8.80;99.90
49465;DHT22;35358;49.342;8.802;2023-04-09T07:39:05;8.90;99.90
49465;DHT22;35358;49.342;8.802;2023-04-09T07:41:33;9.10;99.90
49465;DHT22;35358;49.342;8.802;2023-04-09T07:44:02;9.20;99.90
49465;DHT22;35358;49.342;8.802;2023-04-09T07:46:30;9.40;99.90
49465;DHT22;35358;49.342;8.802;2023-04-09T07:48:55;9.30;99.90
49465;DHT22;35358;49.342;8.802;2023-04-09T07:51:21;9.20;99.90
49465;DHT22;35358;49.342;8.802;2023-04-09T07:53:46;9.50;99.90
49465;DHT22;35358;49.342;8.802;2023-04-09T07:56:15;9.90;99.90
49465;DHT22;35358;49.342;8.802;2023-04-09T07:58:40;10.10;99.90
49465;DHT22;35358;49.342;8.802;2023-04-09T08:01:06;10.20;99.90
49465;DHT22;35358;49.342;8.802;2023-04-09T08:03:31;10.40;99.90
49465;DHT22;35358;49.342;8.802;2023-04-09T08:05:57;10.40;99.90
49465;DHT22;35358;49.342;8.802;2023-04-09T08:08:22;10.50;99.90
49465;DHT22;35358;49.342;8.802;2023-04-09T08:10:48;10.60;99.90
49465;DHT22;35358;49.342;8.802;2023-04-09T08:13:16;10.80;99.90
49465;DHT22;35358;49.342;8.802;2023-04-09T08:15:41;10.70;99.90
49465;DHT22;35358;49.342;8.802;2023-04-09T08:18:07;10.50;99.90
49465;DHT22;35358;49.342;8.802;2023-04-09T08:20:33;10.60;99.90
49465;DHT22;35358;49.342;8.802;2023-04-09T08:23:02;10.60;99.90
49465;DHT22;35358;49.342;8.802;2023-04-09T08:25:30;10.70;99.90
49465;DHT22;35358;49.342;8.802;2023-04-09T08:27:55;10.80;99.90
49465;DHT22;35358;49.342;8.802;2023-04-09T08:30:21;11.00;99.90
49465;DHT22;35358;49.342;8.802;2023-04-09T08:32:46;10.90;99.90
49465;DHT22;35358;49.342;8.802;2023-04-09T08:35:14;10.80;99.90
49465;DHT22;35358;49.342;8.802;2023-04-09T08:37:42;10.90;99.90
49465;DHT22;35358;49.342;8.802;2023-04-09T08:40:08;10.90;99.90
49465;DHT22;35358;49.342;8.802;2023-04-09T08:42:42;11.00;99.90
49465;DHT22;35358;49.342;8.802;2023-04-09T08:45:12;11.10;99.90
49465;DHT22;35358;49.342;8.802;2023-04-09T08:47:42;11.40;99.90
49465;DHT22;35358;49.342;8.802;2023-04-09T08:50:09;11.30;99.90
49465;DHT22;35358;49.342;8.802;2023-04-09T08:52:35;11.40;99.90
49465;DHT22;35358;49.342;8.802;2023-04-09T08:55:01;11.30;99.90
49465;DHT22;35358;49.342;8.802;2023-04-09T08:57:27;11.40;99.90
49465;DHT22;35358;49.342;8.802;2023-04-09T08:59:52;11.50;99.90
49465;DHT22;35358;49.342;8.802;2023-04-09T09:02:20;11.70;99.90
49465;DHT22;35358;49.342;8.802;2023-04-09T09:04:49;11.90;99.90
49465;DHT22;35358;49.342;8.802;2023-04-09T09:07:21;11.70;99.90
49465;DHT22;35358;49.342;8.802;2023-04-09T09:12:34;11.90;99.90
49465;DHT22;35358;49.342;8.802;2023-04-09T09:15:01;11.90;99.90
49465;DHT22;35358;49.342;8.802;2023-04-09T09:17:27;12.10;99.90
49465;DHT22;35358;49.342;8.802;2023-04-09T09:19:52;12.40;99.90
49465;DHT22;35358;49.342;8.802;2023-04-09T09:22:18;12.30;99.90
49465;DHT22;35358;49.342;8.802;2023-04-09T09:24:48;12.50;99.90
49465;DHT22;35358;49.342;8.802;2023-04-09T09:27:37;12.00;99.90
49465;DHT22;35358;49.342;8.802;2023-04-09T09:30:07;11.80;99.90
49465;DHT22;35358;49.342;8.802;2023-04-09T09:32:35;11.60;99.90
49465;DHT22;35358;49.342;8.802;2023-04-09T09:35:08;11.70;99.90
49465;DHT22;35358;49.342;8.802;2023-04-09T09:37:33;11.70;99.90
49465;DHT22;35358;49.342;8.802;2023-04-09T09:40:01;11.60;99.90
49465;DHT22;35358;49.342;8.802;2023-04-09T09:42:29;11.90;99.90
49465;DHT22;35358;49.342;8.802;2023-04-09T09:44:55;11.90;99.90
49465;DHT22;35358;49.342;8.802;2023-04-09T09:47:23;11.90;99.90
49465;DHT22;35358;49.342;8.802;2023-04-09T09:49:50;12.30;99.90
49465;DHT22;35358;49.342;8.802;2023-04-09T09:52:21;12.10;99.90
49465;DHT22;35358;49.342;8.802;2023-04-09T09:54:51;11.90;99.90
49465;DHT22;35358;49.342;8.802;2023-04-09T09:57:19;12.00;99.90
49465;DHT22;35358;49.342;8.802;2023-04-09T10:00:01;12.00;99.90
49465;DHT22;35358;49.342;8.802;2023-04-09T10:02:38;12.00;99.90
49465;DHT22;35358;49.342;8.802;2023-04-09T10:05:05;12.10;99.90
49465;DHT22;35358;49.342;8.802;2023-04-09T10:07:34;12.00;99.90
49465;DHT22;35358;49.342;8.802;2023-04-09T10:10:01;12.20;99.90
49465;DHT22;35358;49.342;8.802;2023-04-09T10:12:27;12.30;99.90
49465;DHT22;35358;49.342;8.802;2023-04-09T10:14:54;12.10;99.90
49465;DHT22;35358;49.342;8.802;2023-04-09T10:17:22;12.20;99.90
49465;DHT22;35358;49.342;8.802;2023-04-09T10:20:03;12.40;99.90
49465;DHT22;35358;49.342;8.802;2023-04-09T10:22:31;12.70;99.90
49465;DHT22;35358;49.342;8.802;2023-04-09T10:24:57;12.60;99.90
49465;DHT22;35358;49.342;8.802;2023-04-09T10:27:25;12.60;99.90
49465;DHT22;35358;49.342;8.802;2023-04-09T10:29:51;12.80;99.90
49465;DHT22;35358;49.342;8.802;2023-04-09T10:32:25;12.90;99.90
49465;DHT22;35358;49.342;8.802;2023-04-09T10:34:57;12.90;99.90
49465;DHT22;35358;49.342;8.802;2023-04-09T10:37:25;12.60;99.90
49465;DHT22;35358;49.342;8.802;2023-04-09T10:39:54;12.70;99.90
49465;DHT22;35358;49.342;8.802;2023-04-09T10:42:29;12.80;99.90
49465;DHT22;35358;49.342;8.802;2023-04-09T10:45:17;12.80;99.90
49465;DHT22;35358;49.342;8.802;2023-04-09T10:47:49;12.90;99.90
49465;DHT22;35358;49.342;8.802;2023-04-09T10:50:24;12.70;99.90
49465;DHT22;35358;49.342;8.802;2023-04-09T10:52:56;12.70;99.90
49465;DHT22;35358;49.342;8.802;2023-04-09T10:58:08;13.00;99.90
49465;DHT22;35358;49.342;8.802;2023-04-09T11:00:39;13.10;99.90
49465;DHT22;35358;49.342;8.802;2023-04-09T11:06:02;13.30;99.90
49465;DHT22;35358;49.342;8.802;2023-04-09T11:08:31;13.40;99.90
49465;DHT22;35358;49.342;8.802;2023-04-09T11:10:58;13.70;99.90
49465;DHT22;35358;49.342;8.802;2023-04-09T11:13:25;13.80;99.90
49465;DHT22;35358;49.342;8.802;2023-04-09T11:15:54;14.20;99.90
49465;DHT22;35358;49.342;8.802;2023-04-09T11:18:27;14.60;99.90
49465;DHT22;35358;49.342;8.802;2023-04-09T11:20:58;14.50;99.90
49465;DHT22;35358;49.342;8.802;2023-04-09T11:23:24;14.40;99.90
49465;DHT22;35358;49.342;8.802;2023-04-09T11:25:53;14.30;99.90
49465;DHT22;35358;49.342;8.802;2023-04-09T11:28:19;14.30;99.90
49465;DHT22;35358;49.342;8.802;2023-04-09T11:30:45;14.30;99.90
49465;DHT22;35358;49.342;8.802;2023-04-09T11:33:13;14.10;99.90
49465;DHT22;35358;49.342;8.802;2023-04-09T11:35:39;14.50;99.90
49465;DHT22;35358;49.342;8.802;2023-04-09T11:38:10;14.60;99.90
49465;DHT22;35358;49.342;8.802;2023-04-09T11:40:39;14.40;99.90
49465;DHT22;35358;49.342;8.802;2023-04-09T11:43:14;14.20;99.90
49465;DHT22;35358;49.342;8.802;2023-04-09T11:45:41;14.40;99.90
49465;DHT22;35358;49.342;8.802;2023-04-09T11:48:07;14.50;99.90
49465;DHT22;35358;49.342;8.802;2023-04-09T11:50:32;14.50;99.90
49465;DHT22;35358;49.342;8.802;2023-04-09T11:53:00;14.50;99.90
49465;DHT22;35358;49.342;8.802;2023-04-09T11:55:27;14.70;99.90
49465;DHT22;35358;49.342;8.802;2023-04-09T11:57:57;14.90;99.90
49465;DHT22;35358;49.342;8.802;2023-04-09T12:00:25;14.90;99.90
49465;DHT22;35358;49.342;8.802;2023-04-09T12:02:59;14.60;99.90
49465;DHT22;35358;49.342;8.802;2023-04-09T12:05:30;14.90;99.90
49465;DHT22;35358;49.342;8.802;2023-04-09T12:08:01;15.40;99.90
49465;DHT22;35358;49.342;8.802;2023-04-09T12:10:35;15.00;99.90
49465;DHT22;35358;49.342;8.802;2023-04-09T12:13:05;14.90;99.90
49465;DHT22;35358;49.342;8.802;2023-04-09T12:15:35;14.60;99.90
49465;DHT22;35358;49.342;8.802;2023-04-09T12:18:09;14.60;99.90
49465;DHT22;35358;49.342;8.802;2023-04-09T12:20:37;14.60;99.90
49465;DHT22;35358;49.342;8.802;2023-04-09T12:23:07;14.80;99.90
49465;DHT22;35358;49.342;8.802;2023-04-09T12:25:40;15.10;99.90
49465;DHT22;35358;49.342;8.802;2023-04-09T12:28:06;15.50;99.90
49465;DHT22;35358;49.342;8.802;2023-04-09T12:30:33;15.80;99.90
49465;DHT22;35358;49.342;8.802;2023-04-09T12:33:02;15.70;99.90
49465;DHT22;35358;49.342;8.802;2023-04-09T12:35:28;15.70;99.90
49465;DHT22;35358;49.342;8.802;2023-04-09T12:37:53;16.10;99.90
49465;DHT22;35358;49.342;8.802;2023-04-09T12:40:19;16.30;99.90
49465;DHT22;35358;49.342;8.802;2023-04-09T12:42:45;16.20;99.90
49465;DHT22;35358;49.342;8.802;2023-04-09T12:45:16;15.90;99.90
49465;DHT22;35358;49.342;8.802;2023-04-09T12:47:42;15.50;99.90
49465;DHT22;35358;49.342;8.802;2023-04-09T12:50:11;15.30;99.90
49465;DHT22;35358;49.342;8.802;2023-04-09T12:52:40;15.00;99.90
49465;DHT22;35358;49.342;8.802;2023-04-09T12:55:09;15.40;99.90
49465;DHT22;35358;49.342;8.802;2023-04-09T12:57:37;15.10;99.90
49465;DHT22;35358;49.342;8.802;2023-04-09T13:00:02;15.40;99.90
49465;DHT22;35358;49.342;8.802;2023-04-09T13:02:29;15.70;99.90
49465;DHT22;35358;49.342;8.802;2023-04-09T13:04:58;16.10;99.90
49465;DHT22;35358;49.342;8.802;2023-04-09T13:07:27;16.50;99.90
49465;DHT22;35358;49.342;8.802;2023-04-09T13:09:54;16.70;99.90
49465;DHT22;35358;49.342;8.802;2023-04-09T13:12:20;17.10;99.90
49465;DHT22;35358;49.342;8.802;2023-04-09T13:14:46;17.20;99.90
49465;DHT22;35358;49.342;8.802;2023-04-09T13:17:13;17.60;99.90
49465;DHT22;35358;49.342;8.802;2023-04-09T13:19:39;17.30;99.90
49465;DHT22;35358;49.342;8.802;2023-04-09T13:22:08;16.70;99.90
49465;DHT22;35358;49.342;8.802;2023-04-09T13:24:35;15.90;99.90
49465;DHT22;35358;49.342;8.802;2023-04-09T13:27:02;15.50;99.90
49465;DHT22;35358;49.342;8.802;2023-04-09T13:29:27;15.10;99.90
49465;DHT22;35358;49.342;8.802;2023-04-09T13:31:56;14.70;99.90
49465;DHT22;35358;49.342;8.802;2023-04-09T13:34:26;14.90;99.90
49465;DHT22;35358;49.342;8.802;2023-04-09T13:36:54;15.20;99.90
49465;DHT22;35358;49.342;8.802;2023-04-09T13:39:20;16.10;99.90
49465;DHT22;35358;49.342;8.802;2023-04-09T13:41:46;16.50;99.90
49465;DHT22;35358;49.342;8.802;2023-04-09T13:44:16;16.70;99.90
49465;DHT22;35358;49.342;8.802;2023-04-09T13:46:42;16.00;99.90
49465;DHT22;35358;49.342;8.802;2023-04-09T13:49:07;16.00;99.90
49465;DHT22;35358;49.342;8.802;2023-04-09T13:51:33;15.40;99.90
49465;DHT22;35358;49.342;8.802;2023-04-09T13:53:59;15.50;99.90
49465;DHT22;35358;49.342;8.802;2023-04-09T13:56:24;15.50;99.90
49465;DHT22;35358;49.342;8.802;2023-04-09T13:58:56;15.20;99.90
49465;DHT22;35358;49.342;8.802;2023-04-09T14:01:22;15.20;99.90
49465;DHT22;35358;49.342;8.802;2023-04-09T14:03:48;15.20;99.90
49465;DHT22;35358;49.342;8.802;2023-04-09T14:06:13;15.10;99.90
49465;DHT22;35358;49.342;8.802;2023-04-09T14:08:39;15.00;99.90
49465;DHT22;35358;49.342;8.802;2023-04-09T14:11:05;15.00;99.90
49465;DHT22;35358;49.342;8.802;2023-04-09T14:13:30;14.70;99.90
49465;DHT22;35358;49.342;8.802;2023-04-09T14:15:56;14.80;99.90
49465;DHT22;35358;49.342;8.802;2023-04-09T14:18:24;14.70;99.90
49465;DHT22;35358;49.342;8.802;2023-04-09T14:20:50;14.70;99.90
49465;DHT22;35358;49.342;8.802;2023-04-09T14:23:15;14.70;99.90
49465;DHT22;35358;49.342;8.802;2023-04-09T14:25:41;14.70;99.90
49465;DHT22;35358;49.342;8.802;2023-04-09T14:28:09;15.50;99.90
49465;DHT22;35358;49.342;8.802;2023-04-09T14:30:37;16.30;99.90
49465;DHT22;35358;49.342;8.802;2023-04-09T14:33:03;17.30;99.90
49465;DHT22;35358;49.342;8.802;2023-04-09T14:35:33;17.70;99.90
49465;DHT22;35358;49.342;8.802;2023-04-09T14:38:03;17.90;99.90
49465;DHT22;35358;49.342;8.802;2023-04-09T14:40:32;17.70;99.90
49465;DHT22;35358;49.342;8.802;2023-04-09T14:42:59;17.60;99.90
49465;DHT22;35358;49.342;8.802;2023-04-09T14:45:27;17.70;99.90
49465;DHT22;35358;49.342;8.802;2023-04-09T14:47:55;17.80;99.90
49465;DHT22;35358;49.342;8.802;2023-04-09T14:50:20;17.20;99.90
49465;DHT22;35358;49.342;8.802;2023-04-09T14:52:48;18.00;99.90
49465;DHT22;35358;49.342;8.802;2023-04-09T14:55:14;18.80;99.90
49465;DHT22;35358;49.342;8.802;2023-04-09T14:57:40;19.00;99.90
49465;DHT22;35358;49.342;8.802;2023-04-09T15:00:08;18.60;99.90
49465;DHT22;35358;49.342;8.802;2023-04-09T15:02:34;19.10;99.90
49465;DHT22;35358;49.342;8.802;2023-04-09T15:05:02;18.30;99.90
49465;DHT22;35358;49.342;8.802;2023-04-09T15:07:28;17.50;99.90
49465;DHT22;35358;49.342;8.802;2023-04-09T15:09:53;17.70;99.90
49465;DHT22;35358;49.342;8.802;2023-04-09T15:12:21;17.40;99.90
49465;DHT22;35358;49.342;8.802;2023-04-09T15:14:47;17.20;99.90
49465;DHT22;35358;49.342;8.802;2023-04-09T15:17:12;16.80;99.90
49465;DHT22;35358;49.342;8.802;2023-04-09T15:19:38;16.60;99.90
49465;DHT22;35358;49.342;8.802;2023-04-09T15:22:04;16.60;99.90
49465;DHT22;35358;49.342;8.802;2023-04-09T15:24:29;16.80;99.90
49465;DHT22;35358;49.342;8.802;2023-04-09T15:26:55;17.30;99.90
49465;DHT22;35358;49.342;8.802;2023-04-09T15:29:21;17.90;99.90
49465;DHT22;35358;49.342;8.802;2023-04-09T15:31:49;18.40;99.90
49465;DHT22;35358;49.342;8.802;2023-04-09T15:34:21;19.00;99.90
49465;DHT22;35358;49.342;8.802;2023-04-09T15:36:50;18.90;99.90
49465;DHT22;35358;49.342;8.802;2023-04-09T15:39:16;18.60;99.90
49465;DHT22;35358;49.342;8.802;2023-04-09T15:41:42;18.80;99.90
49465;DHT22;35358;49.342;8.802;2023-04-09T15:44:10;19.00;99.90
49465;DHT22;35358;49.342;8.802;2023-04-09T15:46:37;19.00;99.90
49465;DHT22;35358;49.342;8.802;2023-04-09T15:49:04;19.30;99.90
49465;DHT22;35358;49.342;8.802;2023-04-09T15:51:29;19.30;99.90
49465;DHT22;35358;49.342;8.802;2023-04-09T15:53:55;18.70;99.90